sensor_id;sensor_type;location;lat;lon;timestamp;temperature;humidity
24800;DHT22;12897;50.812;4.430;2022-07-29T00:01:39;20.30;99.90
24800;DHT22;12897;50.812;4.430;2022-07-29T00:04:06;20.10;99.90
24800;DHT22;12897;50.812;4.430;2022-07-29T00:06:34;20.00;99.90
24800;DHT22;12897;50.812;4.430;2022-07-29T00:09:01;20.00;99.90
24800;DHT22;12897;50.812;4.430;2022-07-29T00:11:29;20.00;99.90
24800;DHT22;12897;50.812;4.430;2022-07-29T00:13:57;19.90;99.90
24800;DHT22;12897;50.812;4.430;2022-07-29T00:16:24;19.90;99.90
24800;DHT22;12897;50.812;4.430;2022-07-29T00:18:52;20.00;99.90
24800;DHT22;12897;50.812;4.430;2022-07-29T00:21:19;20.00;99.90
24800;DHT22;12897;50.812;4.430;2022-07-29T00:23:47;19.80;99.90
24800;DHT22;12897;50.812;4.430;2022-07-29T00:26:14;19.80;99.90
24800;DHT22;12897;50.812;4.430;2022-07-29T00:28:42;19.90;99.90
24800;DHT22;12897;50.812;4.430;2022-07-29T00:31:10;20.10;99.90
24800;DHT22;12897;50.812;4.430;2022-07-29T00:33:37;20.10;99.90
24800;DHT22;12897;50.812;4.430;2022-07-29T00:36:05;20.00;99.90
24800;DHT22;12897;50.812;4.430;2022-07-29T00:38:32;19.90;99.90
24800;DHT22;12897;50.812;4.430;2022-07-29T00:41:00;19.70;99.90
24800;DHT22;12897;50.812;4.430;2022-07-29T00:43:27;19.70;99.90
24800;DHT22;12897;50.812;4.430;2022-07-29T00:45:55;19.70;99.90
24800;DHT22;12897;50.812;4.430;2022-07-29T00:48:22;19.60;99.90
24800;DHT22;12897;50.812;4.430;2022-07-29T00:50:50;19.60;99.90
24800;DHT22;12897;50.812;4.430;2022-07-29T00:53:19;19.40;99.90
24800;DHT22;12897;50.812;4.430;2022-07-29T00:55:47;19.40;99.90
24800;DHT22;12897;50.812;4.430;2022-07-29T00:58:15;19.40;99.90
24800;DHT22;12897;50.812;4.430;2022-07-29T01:00:42;19.30;99.90
24800;DHT22;12897;50.812;4.430;2022-07-29T01:03:10;19.10;99.90
24800;DHT22;12897;50.812;4.430;2022-07-29T01:05:38;19.10;99.90
24800;DHT22;12897;50.812;4.430;2022-07-29T01:08:08;19.10;99.90
24800;DHT22;12897;50.812;4.430;2022-07-29T01:10:37;19.10;99.90
24800;DHT22;12897;50.812;4.430;2022-07-29T01:13:06;18.90;99.90
24800;DHT22;12897;50.812;4.430;2022-07-29T01:15:55;18.90;99.90
24800;DHT22;12897;50.812;4.430;2022-07-29T01:29:17;18.80;99.90
24800;DHT22;12897;50.812;4.430;2022-07-29T01:32:03;18.90;99.90
24800;DHT22;12897;50.812;4.430;2022-07-29T01:34:52;18.90;99.90
24800;DHT22;12897;50.812;4.430;2022-07-29T01:37:22;18.80;99.90
24800;DHT22;12897;50.812;4.430;2022-07-29T01:39:42;19.10;99.90
24800;DHT22;12897;50.812;4.430;2022-07-29T01:42:14;19.00;99.90
24800;DHT22;12897;50.812;4.430;2022-07-29T01:45:00;18.90;99.90
24800;DHT22;12897;50.812;4.430;2022-07-29T01:47:45;19.00;99.90
24800;DHT22;12897;50.812;4.430;2022-07-29T01:50:14;18.90;99.90
24800;DHT22;12897;50.812;4.430;2022-07-29T01:52:49;18.80;99.90
24800;DHT22;12897;50.812;4.430;2022-07-29T01:55:17;18.90;99.90
24800;DHT22;12897;50.812;4.430;2022-07-29T01:57:48;18.90;99.90
24800;DHT22;12897;50.812;4.430;2022-07-29T02:00:16;18.90;99.90
24800;DHT22;12897;50.812;4.430;2022-07-29T02:02:46;18.80;99.90
24800;DHT22;12897;50.812;4.430;2022-07-29T02:05:17;18.80;99.90
24800;DHT22;12897;50.812;4.430;2022-07-29T02:07:47;18.80;99.90
24800;DHT22;12897;50.812;4.430;2022-07-29T02:10:16;18.80;99.90
24800;DHT22;12897;50.812;4.430;2022-07-29T02:12:46;18.80;99.90
24800;DHT22;12897;50.812;4.430;2022-07-29T02:15:26;18.90;99.90
24800;DHT22;12897;50.812;4.430;2022-07-29T02:18:04;18.80;99.90
24800;DHT22;12897;50.812;4.430;2022-07-29T02:20:28;18.80;99.90
24800;DHT22;12897;50.812;4.430;2022-07-29T02:22:57;18.80;99.90
24800;DHT22;12897;50.812;4.430;2022-07-29T02:25:27;18.80;99.90
24800;DHT22;12897;50.812;4.430;2022-07-29T02:27:55;18.70;99.90
24800;DHT22;12897;50.812;4.430;2022-07-29T02:30:25;18.70;99.90
24800;DHT22;12897;50.812;4.430;2022-07-29T02:32:55;18.60;99.90
24800;DHT22;12897;50.812;4.430;2022-07-29T02:35:23;18.70;99.90
24800;DHT22;12897;50.812;4.430;2022-07-29T02:37:52;18.80;99.90
24800;DHT22;12897;50.812;4.430;2022-07-29T02:40:39;18.70;99.90
24800;DHT22;12897;50.812;4.430;2022-07-29T02:43:07;18.60;99.90
24800;DHT22;12897;50.812;4.430;2022-07-29T02:45:36;18.80;99.90
24800;DHT22;12897;50.812;4.430;2022-07-29T02:48:06;18.70;99.90
24800;DHT22;12897;50.812;4.430;2022-07-29T02:50:37;18.60;99.90
24800;DHT22;12897;50.812;4.430;2022-07-29T02:55:56;18.40;99.90
24800;DHT22;12897;50.812;4.430;2022-07-29T02:58:49;18.30;99.90
24800;DHT22;12897;50.812;4.430;2022-07-29T03:01:16;18.30;99.90
24800;DHT22;12897;50.812;4.430;2022-07-29T03:03:46;18.40;99.90
24800;DHT22;12897;50.812;4.430;2022-07-29T03:06:16;18.40;99.90
24800;DHT22;12897;50.812;4.430;2022-07-29T03:08:45;18.30;99.90
24800;DHT22;12897;50.812;4.430;2022-07-29T03:11:13;18.20;99.90
24800;DHT22;12897;50.812;4.430;2022-07-29T03:13:42;18.20;99.90
24800;DHT22;12897;50.812;4.430;2022-07-29T03:16:11;18.20;99.90
24800;DHT22;12897;50.812;4.430;2022-07-29T03:18:39;18.10;99.90
24800;DHT22;12897;50.812;4.430;2022-07-29T03:21:07;18.10;99.90
24800;DHT22;12897;50.812;4.430;2022-07-29T03:23:35;18.10;99.90
24800;DHT22;12897;50.812;4.430;2022-07-29T03:26:03;18.10;99.90
24800;DHT22;12897;50.812;4.430;2022-07-29T03:28:30;18.10;99.90
24800;DHT22;12897;50.812;4.430;2022-07-29T03:30:58;18.20;99.90
24800;DHT22;12897;50.812;4.430;2022-07-29T03:33:25;18.00;99.90
24800;DHT22;12897;50.812;4.430;2022-07-29T03:35:54;17.80;99.90
24800;DHT22;12897;50.812;4.430;2022-07-29T03:38:24;17.80;99.90
24800;DHT22;12897;50.812;4.430;2022-07-29T03:40:58;17.70;99.90
24800;DHT22;12897;50.812;4.430;2022-07-29T03:43:32;17.70;99.90
24800;DHT22;12897;50.812;4.430;2022-07-29T03:46:02;17.50;99.90
24800;DHT22;12897;50.812;4.430;2022-07-29T03:48:33;17.40;99.90
24800;DHT22;12897;50.812;4.430;2022-07-29T03:51:02;17.40;99.90
24800;DHT22;12897;50.812;4.430;2022-07-29T03:53:31;17.30;99.90
24800;DHT22;12897;50.812;4.430;2022-07-29T03:55:59;17.40;99.90
24800;DHT22;12897;50.812;4.430;2022-07-29T03:58:30;17.40;99.90
24800;DHT22;12897;50.812;4.430;2022-07-29T04:00:58;17.30;99.90
24800;DHT22;12897;50.812;4.430;2022-07-29T04:03:26;17.50;99.90
24800;DHT22;12897;50.812;4.430;2022-07-29T04:06:05;17.40;99.90
24800;DHT22;12897;50.812;4.430;2022-07-29T04:08:33;17.40;99.90
24800;DHT22;12897;50.812;4.430;2022-07-29T04:11:02;17.40;99.90
24800;DHT22;12897;50.812;4.430;2022-07-29T04:13:30;17.40;99.90
24800;DHT22;12897;50.812;4.430;2022-07-29T04:15:58;17.40;99.90
24800;DHT22;12897;50.812;4.430;2022-07-29T04:18:27;17.30;99.90
24800;DHT22;12897;50.812;4.430;2022-07-29T04:20:54;17.30;99.90
24800;DHT22;12897;50.812;4.430;2022-07-29T04:23:22;17.30;99.90
24800;DHT22;12897;50.812;4.430;2022-07-29T04:26:03;17.20;99.90
24800;DHT22;12897;50.812;4.430;2022-07-29T04:28:37;17.00;99.90
24800;DHT22;12897;50.812;4.430;2022-07-29T04:31:06;16.80;99.90
24800;DHT22;12897;50.812;4.430;2022-07-29T04:33:33;16.80;99.90
24800;DHT22;12897;50.812;4.430;2022-07-29T04:36:01;16.80;99.90
24800;DHT22;12897;50.812;4.430;2022-07-29T04:38:28;16.80;99.90
24800;DHT22;12897;50.812;4.430;2022-07-29T04:40:56;16.80;99.90
24800;DHT22;12897;50.812;4.430;2022-07-29T04:43:23;16.90;99.90
24800;DHT22;12897;50.812;4.430;2022-07-29T04:45:51;16.80;99.90
24800;DHT22;12897;50.812;4.430;2022-07-29T04:48:18;16.80;99.90
24800;DHT22;12897;50.812;4.430;2022-07-29T04:50:46;17.00;99.90
24800;DHT22;12897;50.812;4.430;2022-07-29T04:53:13;17.10;99.90
24800;DHT22;12897;50.812;4.430;2022-07-29T04:55:41;17.20;99.90
24800;DHT22;12897;50.812;4.430;2022-07-29T04:58:08;17.20;99.90
24800;DHT22;12897;50.812;4.430;2022-07-29T05:00:36;17.30;99.90
24800;DHT22;12897;50.812;4.430;2022-07-29T05:03:04;17.30;99.90
24800;DHT22;12897;50.812;4.430;2022-07-29T05:05:31;17.40;99.90
24800;DHT22;12897;50.812;4.430;2022-07-29T05:07:59;17.40;99.90
24800;DHT22;12897;50.812;4.430;2022-07-29T05:10:27;17.40;99.90
24800;DHT22;12897;50.812;4.430;2022-07-29T05:12:55;17.40;99.90
24800;DHT22;12897;50.812;4.430;2022-07-29T05:15:22;17.20;99.90
24800;DHT22;12897;50.812;4.430;2022-07-29T05:17:50;17.20;99.90
24800;DHT22;12897;50.812;4.430;2022-07-29T05:20:17;17.20;99.90
24800;DHT22;12897;50.812;4.430;2022-07-29T05:22:45;17.30;99.90
24800;DHT22;12897;50.812;4.430;2022-07-29T05:25:13;17.40;99.90
24800;DHT22;12897;50.812;4.430;2022-07-29T05:27:40;17.50;99.90
24800;DHT22;12897;50.812;4.430;2022-07-29T05:30:08;17.70;99.90
24800;DHT22;12897;50.812;4.430;2022-07-29T05:32:36;17.80;99.90
24800;DHT22;12897;50.812;4.430;2022-07-29T05:35:03;18.10;99.90
24800;DHT22;12897;50.812;4.430;2022-07-29T05:37:31;18.90;99.90
24800;DHT22;12897;50.812;4.430;2022-07-29T05:39:58;19.60;99.90
24800;DHT22;12897;50.812;4.430;2022-07-29T05:42:26;20.10;99.90
24800;DHT22;12897;50.812;4.430;2022-07-29T05:44:55;20.60;99.90
24800;DHT22;12897;50.812;4.430;2022-07-29T05:47:24;20.50;99.90
24800;DHT22;12897;50.812;4.430;2022-07-29T05:49:52;20.40;99.90
24800;DHT22;12897;50.812;4.430;2022-07-29T05:52:20;20.30;99.90
24800;DHT22;12897;50.812;4.430;2022-07-29T05:54:48;20.10;99.90
24800;DHT22;12897;50.812;4.430;2022-07-29T05:57:17;20.30;99.90
24800;DHT22;12897;50.812;4.430;2022-07-29T05:59:46;21.10;99.90
24800;DHT22;12897;50.812;4.430;2022-07-29T06:02:14;21.80;99.90
24800;DHT22;12897;50.812;4.430;2022-07-29T06:04:42;22.00;99.90
24800;DHT22;12897;50.812;4.430;2022-07-29T06:07:10;22.50;99.90
24800;DHT22;12897;50.812;4.430;2022-07-29T06:09:38;22.80;99.90
24800;DHT22;12897;50.812;4.430;2022-07-29T06:12:05;23.20;99.90
24800;DHT22;12897;50.812;4.430;2022-07-29T06:14:33;23.30;99.90
24800;DHT22;12897;50.812;4.430;2022-07-29T06:17:01;23.50;99.90
24800;DHT22;12897;50.812;4.430;2022-07-29T06:19:29;23.60;99.90
24800;DHT22;12897;50.812;4.430;2022-07-29T06:21:57;23.50;99.90
24800;DHT22;12897;50.812;4.430;2022-07-29T06:24:24;23.20;99.90
24800;DHT22;12897;50.812;4.430;2022-07-29T06:26:52;23.40;99.90
24800;DHT22;12897;50.812;4.430;2022-07-29T06:29:20;23.40;99.90
24800;DHT22;12897;50.812;4.430;2022-07-29T06:31:48;23.20;99.90
24800;DHT22;12897;50.812;4.430;2022-07-29T06:34:15;22.90;99.90
24800;DHT22;12897;50.812;4.430;2022-07-29T06:36:43;22.40;99.90
24800;DHT22;12897;50.812;4.430;2022-07-29T06:39:10;22.40;99.90
24800;DHT22;12897;50.812;4.430;2022-07-29T06:41:38;22.20;99.90
24800;DHT22;12897;50.812;4.430;2022-07-29T06:44:06;22.30;99.90
24800;DHT22;12897;50.812;4.430;2022-07-29T06:46:33;22.30;99.90
24800;DHT22;12897;50.812;4.430;2022-07-29T06:49:01;22.30;99.90
24800;DHT22;12897;50.812;4.430;2022-07-29T06:51:28;22.30;99.90
24800;DHT22;12897;50.812;4.430;2022-07-29T06:53:56;22.60;99.90
24800;DHT22;12897;50.812;4.430;2022-07-29T06:56:27;22.60;99.90
24800;DHT22;12897;50.812;4.430;2022-07-29T06:58:54;22.90;99.90
24800;DHT22;12897;50.812;4.430;2022-07-29T07:01:22;22.90;99.90
24800;DHT22;12897;50.812;4.430;2022-07-29T07:03:50;22.80;99.90
24800;DHT22;12897;50.812;4.430;2022-07-29T07:06:17;23.20;99.90
24800;DHT22;12897;50.812;4.430;2022-07-29T07:08:45;23.60;99.90
24800;DHT22;12897;50.812;4.430;2022-07-29T07:11:12;23.50;99.90
24800;DHT22;12897;50.812;4.430;2022-07-29T07:13:40;23.70;99.90
24800;DHT22;12897;50.812;4.430;2022-07-29T07:16:07;23.50;99.90
24800;DHT22;12897;50.812;4.430;2022-07-29T07:18:35;23.40;99.90
24800;DHT22;12897;50.812;4.430;2022-07-29T07:21:02;23.10;99.90
24800;DHT22;12897;50.812;4.430;2022-07-29T07:23:31;23.10;99.90
24800;DHT22;12897;50.812;4.430;2022-07-29T07:25:58;22.90;99.90
24800;DHT22;12897;50.812;4.430;2022-07-29T07:28:26;23.00;99.90
24800;DHT22;12897;50.812;4.430;2022-07-29T07:30:53;22.90;99.90
24800;DHT22;12897;50.812;4.430;2022-07-29T07:33:21;22.80;99.90
24800;DHT22;12897;50.812;4.430;2022-07-29T07:35:49;22.70;99.90
24800;DHT22;12897;50.812;4.430;2022-07-29T07:38:16;22.50;99.90
24800;DHT22;12897;50.812;4.430;2022-07-29T07:40:44;22.60;99.90
24800;DHT22;12897;50.812;4.430;2022-07-29T07:43:12;22.40;99.90
24800;DHT22;12897;50.812;4.430;2022-07-29T07:45:40;22.40;99.90
24800;DHT22;12897;50.812;4.430;2022-07-29T07:48:07;22.30;99.90
24800;DHT22;12897;50.812;4.430;2022-07-29T07:50:37;22.30;99.90
24800;DHT22;12897;50.812;4.430;2022-07-29T07:53:04;22.20;99.90
24800;DHT22;12897;50.812;4.430;2022-07-29T07:55:32;22.10;99.90
24800;DHT22;12897;50.812;4.430;2022-07-29T07:57:59;22.10;99.90
24800;DHT22;12897;50.812;4.430;2022-07-29T08:00:27;21.90;99.90
24800;DHT22;12897;50.812;4.430;2022-07-29T08:02:54;21.90;99.90
24800;DHT22;12897;50.812;4.430;2022-07-29T08:05:22;21.70;99.90
24800;DHT22;12897;50.812;4.430;2022-07-29T08:07:49;21.70;99.90
24800;DHT22;12897;50.812;4.430;2022-07-29T08:10:18;21.70;99.90
24800;DHT22;12897;50.812;4.430;2022-07-29T08:13:05;21.70;99.90
24800;DHT22;12897;50.812;4.430;2022-07-29T08:15:33;21.90;99.90
24800;DHT22;12897;50.812;4.430;2022-07-29T08:18:01;21.90;99.90
24800;DHT22;12897;50.812;4.430;2022-07-29T08:20:29;22.20;99.90
24800;DHT22;12897;50.812;4.430;2022-07-29T08:22:58;22.20;99.90
24800;DHT22;12897;50.812;4.430;2022-07-29T08:25:26;22.10;99.90
24800;DHT22;12897;50.812;4.430;2022-07-29T08:27:53;22.10;99.90
24800;DHT22;12897;50.812;4.430;2022-07-29T08:30:21;22.20;99.90
24800;DHT22;12897;50.812;4.430;2022-07-29T08:32:49;22.30;99.90
24800;DHT22;12897;50.812;4.430;2022-07-29T08:35:17;22.30;99.90
24800;DHT22;12897;50.812;4.430;2022-07-29T08:37:45;22.50;99.90
24800;DHT22;12897;50.812;4.430;2022-07-29T08:40:12;22.30;99.90
24800;DHT22;12897;50.812;4.430;2022-07-29T08:42:40;22.30;99.90
24800;DHT22;12897;50.812;4.430;2022-07-29T08:45:08;22.40;99.90
24800;DHT22;12897;50.812;4.430;2022-07-29T08:47:37;22.50;99.90
24800;DHT22;12897;50.812;4.430;2022-07-29T08:50:08;22.70;99.90
24800;DHT22;12897;50.812;4.430;2022-07-29T08:52:37;22.80;99.90
24800;DHT22;12897;50.812;4.430;2022-07-29T08:55:07;22.80;99.90
24800;DHT22;12897;50.812;4.430;2022-07-29T08:57:36;22.90;99.90
24800;DHT22;12897;50.812;4.430;2022-07-29T09:00:06;23.00;99.90
24800;DHT22;12897;50.812;4.430;2022-07-29T09:02:39;22.90;99.90
24800;DHT22;12897;50.812;4.430;2022-07-29T09:05:06;22.80;99.90
24800;DHT22;12897;50.812;4.430;2022-07-29T09:07:34;22.90;99.90
24800;DHT22;12897;50.812;4.430;2022-07-29T09:10:03;22.90;99.90
24800;DHT22;12897;50.812;4.430;2022-07-29T09:12:31;22.90;99.90
24800;DHT22;12897;50.812;4.430;2022-07-29T09:14:58;23.00;99.90
24800;DHT22;12897;50.812;4.430;2022-07-29T09:17:40;23.00;99.90
24800;DHT22;12897;50.812;4.430;2022-07-29T09:20:10;22.80;99.90
24800;DHT22;12897;50.812;4.430;2022-07-29T09:22:38;22.80;99.90
24800;DHT22;12897;50.812;4.430;2022-07-29T09:25:06;23.10;99.90
24800;DHT22;12897;50.812;4.430;2022-07-29T09:27:33;23.10;99.90
24800;DHT22;12897;50.812;4.430;2022-07-29T09:30:06;22.80;99.90
24800;DHT22;12897;50.812;4.430;2022-07-29T09:33:01;22.70;99.90
24800;DHT22;12897;50.812;4.430;2022-07-29T09:35:18;22.60;99.90
24800;DHT22;12897;50.812;4.430;2022-07-29T09:37:46;22.50;99.90
24800;DHT22;12897;50.812;4.430;2022-07-29T09:40:22;22.50;99.90
24800;DHT22;12897;50.812;4.430;2022-07-29T09:42:51;22.70;99.90
24800;DHT22;12897;50.812;4.430;2022-07-29T09:45:31;22.70;99.90
24800;DHT22;12897;50.812;4.430;2022-07-29T09:48:12;22.90;99.90
24800;DHT22;12897;50.812;4.430;2022-07-29T09:50:39;23.00;99.90
24800;DHT22;12897;50.812;4.430;2022-07-29T09:53:07;23.00;99.90
24800;DHT22;12897;50.812;4.430;2022-07-29T09:55:48;23.10;99.90
24800;DHT22;12897;50.812;4.430;2022-07-29T09:58:21;23.30;99.90
24800;DHT22;12897;50.812;4.430;2022-07-29T10:00:50;23.10;99.90
24800;DHT22;12897;50.812;4.430;2022-07-29T10:03:18;23.20;99.90
24800;DHT22;12897;50.812;4.430;2022-07-29T10:05:47;23.10;99.90
24800;DHT22;12897;50.812;4.430;2022-07-29T10:08:24;23.00;99.90
24800;DHT22;12897;50.812;4.430;2022-07-29T10:10:46;23.00;99.90
24800;DHT22;12897;50.812;4.430;2022-07-29T10:13:14;23.10;99.90
24800;DHT22;12897;50.812;4.430;2022-07-29T10:15:43;23.20;99.90
24800;DHT22;12897;50.812;4.430;2022-07-29T10:18:13;23.20;99.90
24800;DHT22;12897;50.812;4.430;2022-07-29T10:20:44;23.30;99.90
24800;DHT22;12897;50.812;4.430;2022-07-29T10:23:11;23.30;99.90
24800;DHT22;12897;50.812;4.430;2022-07-29T10:25:39;23.30;99.90
24800;DHT22;12897;50.812;4.430;2022-07-29T10:28:07;23.20;99.90
24800;DHT22;12897;50.812;4.430;2022-07-29T10:30:37;23.30;99.90
24800;DHT22;12897;50.812;4.430;2022-07-29T10:36:26;23.60;99.90
24800;DHT22;12897;50.812;4.430;2022-07-29T10:39:06;23.50;99.90
24800;DHT22;12897;50.812;4.430;2022-07-29T10:44:25;23.50;99.90
24800;DHT22;12897;50.812;4.430;2022-07-29T10:46:53;23.80;99.90
24800;DHT22;12897;50.812;4.430;2022-07-29T10:49:22;24.20;99.90
24800;DHT22;12897;50.812;4.430;2022-07-29T10:52:06;24.10;99.90
24800;DHT22;12897;50.812;4.430;2022-07-29T10:57:23;24.30;99.90
24800;DHT22;12897;50.812;4.430;2022-07-29T11:02:43;24.10;99.90
24800;DHT22;12897;50.812;4.430;2022-07-29T11:05:17;24.00;99.90
24800;DHT22;12897;50.812;4.430;2022-07-29T11:10:48;24.50;99.90
24800;DHT22;12897;50.812;4.430;2022-07-29T11:14:07;24.30;99.90
24800;DHT22;12897;50.812;4.430;2022-07-29T11:16:09;24.10;99.90
24800;DHT22;12897;50.812;4.430;2022-07-29T11:18:36;24.20;99.90
24800;DHT22;12897;50.812;4.430;2022-07-29T11:21:07;24.40;99.90
24800;DHT22;12897;50.812;4.430;2022-07-29T11:23:36;24.60;99.90
24800;DHT22;12897;50.812;4.430;2022-07-29T11:26:13;24.80;99.90
24800;DHT22;12897;50.812;4.430;2022-07-29T11:29:20;25.00;99.90
24800;DHT22;12897;50.812;4.430;2022-07-29T11:31:52;24.80;99.20
24800;DHT22;12897;50.812;4.430;2022-07-29T11:34:32;24.50;99.40
24800;DHT22;12897;50.812;4.430;2022-07-29T11:45:10;24.90;97.00
24800;DHT22;12897;50.812;4.430;2022-07-29T11:47:41;25.20;95.80
24800;DHT22;12897;50.812;4.430;2022-07-29T11:50:12;25.40;94.80
24800;DHT22;12897;50.812;4.430;2022-07-29T11:52:42;25.30;94.70
24800;DHT22;12897;50.812;4.430;2022-07-29T11:55:13;25.30;94.40
24800;DHT22;12897;50.812;4.430;2022-07-29T11:57:48;25.40;94.50
24800;DHT22;12897;50.812;4.430;2022-07-29T12:02:57;25.60;93.70
24800;DHT22;12897;50.812;4.430;2022-07-29T12:05:58;26.00;93.40
24800;DHT22;12897;50.812;4.430;2022-07-29T12:10:39;26.40;91.20
24800;DHT22;12897;50.812;4.430;2022-07-29T12:13:08;26.40;90.40
24800;DHT22;12897;50.812;4.430;2022-07-29T12:15:36;26.30;89.80
24800;DHT22;12897;50.812;4.430;2022-07-29T12:18:18;26.30;89.70
24800;DHT22;12897;50.812;4.430;2022-07-29T12:20:47;26.10;90.20
24800;DHT22;12897;50.812;4.430;2022-07-29T12:23:15;25.90;91.00
24800;DHT22;12897;50.812;4.430;2022-07-29T12:25:44;26.00;91.20
24800;DHT22;12897;50.812;4.430;2022-07-29T12:28:14;26.00;91.10
24800;DHT22;12897;50.812;4.430;2022-07-29T12:30:47;26.40;90.80
24800;DHT22;12897;50.812;4.430;2022-07-29T12:33:19;26.50;90.70
24800;DHT22;12897;50.812;4.430;2022-07-29T12:35:53;26.40;90.80
24800;DHT22;12897;50.812;4.430;2022-07-29T12:38:21;26.50;90.70
24800;DHT22;12897;50.812;4.430;2022-07-29T12:40:52;26.40;90.60
24800;DHT22;12897;50.812;4.430;2022-07-29T12:43:22;26.50;90.20
24800;DHT22;12897;50.812;4.430;2022-07-29T12:45:52;26.60;90.30
24800;DHT22;12897;50.812;4.430;2022-07-29T12:48:39;26.50;86.70
24800;DHT22;12897;50.812;4.430;2022-07-29T12:51:08;26.70;85.20
24800;DHT22;12897;50.812;4.430;2022-07-29T12:53:38;27.00;83.50
24800;DHT22;12897;50.812;4.430;2022-07-29T12:56:06;27.30;82.50
24800;DHT22;12897;50.812;4.430;2022-07-29T12:58:40;27.20;86.00
24800;DHT22;12897;50.812;4.430;2022-07-29T13:01:14;26.90;85.60
24800;DHT22;12897;50.812;4.430;2022-07-29T13:03:55;26.80;82.10
24800;DHT22;12897;50.812;4.430;2022-07-29T13:06:37;26.60;81.90
24800;DHT22;12897;50.812;4.430;2022-07-29T13:09:11;26.80;82.70
24800;DHT22;12897;50.812;4.430;2022-07-29T13:11:45;26.90;82.60
24800;DHT22;12897;50.812;4.430;2022-07-29T13:14:30;27.00;80.50
24800;DHT22;12897;50.812;4.430;2022-07-29T13:17:06;27.20;80.30
24800;DHT22;12897;50.812;4.430;2022-07-29T13:19:50;27.60;79.10
24800;DHT22;12897;50.812;4.430;2022-07-29T13:22:16;27.70;78.20
24800;DHT22;12897;50.812;4.430;2022-07-29T13:24:55;27.70;78.40
24800;DHT22;12897;50.812;4.430;2022-07-29T13:27:24;27.80;78.30
24800;DHT22;12897;50.812;4.430;2022-07-29T13:29:54;27.00;79.40
24800;DHT22;12897;50.812;4.430;2022-07-29T13:32:24;26.70;81.60
24800;DHT22;12897;50.812;4.430;2022-07-29T13:34:52;26.60;81.20
24800;DHT22;12897;50.812;4.430;2022-07-29T13:37:20;26.90;81.40
24800;DHT22;12897;50.812;4.430;2022-07-29T13:39:47;26.90;81.30
24800;DHT22;12897;50.812;4.430;2022-07-29T13:42:15;26.90;80.40
24800;DHT22;12897;50.812;4.430;2022-07-29T13:44:43;27.10;81.30
24800;DHT22;12897;50.812;4.430;2022-07-29T13:47:10;26.90;80.80
24800;DHT22;12897;50.812;4.430;2022-07-29T13:49:38;26.80;80.30
24800;DHT22;12897;50.812;4.430;2022-07-29T13:52:05;26.90;79.70
24800;DHT22;12897;50.812;4.430;2022-07-29T13:54:33;27.00;80.30
24800;DHT22;12897;50.812;4.430;2022-07-29T13:57:02;27.00;79.50
24800;DHT22;12897;50.812;4.430;2022-07-29T13:59:30;27.10;78.70
24800;DHT22;12897;50.812;4.430;2022-07-29T14:02:04;26.90;79.70
24800;DHT22;12897;50.812;4.430;2022-07-29T14:04:34;27.00;78.50
24800;DHT22;12897;50.812;4.430;2022-07-29T14:07:02;27.30;77.90
24800;DHT22;12897;50.812;4.430;2022-07-29T14:09:30;27.30;77.70
24800;DHT22;12897;50.812;4.430;2022-07-29T14:11:57;27.20;77.70
24800;DHT22;12897;50.812;4.430;2022-07-29T14:14:25;26.90;77.60
24800;DHT22;12897;50.812;4.430;2022-07-29T14:16:52;26.90;79.20
24800;DHT22;12897;50.812;4.430;2022-07-29T14:19:20;26.60;79.00
24800;DHT22;12897;50.812;4.430;2022-07-29T14:21:47;26.50;79.60
24800;DHT22;12897;50.812;4.430;2022-07-29T14:24:15;26.70;79.00
24800;DHT22;12897;50.812;4.430;2022-07-29T14:26:42;26.60;78.80
24800;DHT22;12897;50.812;4.430;2022-07-29T14:29:10;26.70;77.90
24800;DHT22;12897;50.812;4.430;2022-07-29T14:31:38;26.70;78.00
24800;DHT22;12897;50.812;4.430;2022-07-29T14:34:05;26.80;77.20
24800;DHT22;12897;50.812;4.430;2022-07-29T14:36:33;26.80;76.20
24800;DHT22;12897;50.812;4.430;2022-07-29T14:39:01;26.80;74.70
24800;DHT22;12897;50.812;4.430;2022-07-29T14:41:28;26.50;74.70
24800;DHT22;12897;50.812;4.430;2022-07-29T14:43:57;26.40;74.50
24800;DHT22;12897;50.812;4.430;2022-07-29T14:46:26;26.30;76.00
24800;DHT22;12897;50.812;4.430;2022-07-29T14:48:54;26.10;76.50
24800;DHT22;12897;50.812;4.430;2022-07-29T14:51:21;25.90;76.20
24800;DHT22;12897;50.812;4.430;2022-07-29T14:53:49;26.00;76.10
24800;DHT22;12897;50.812;4.430;2022-07-29T14:56:17;26.00;78.70
24800;DHT22;12897;50.812;4.430;2022-07-29T14:58:44;25.70;78.80
24800;DHT22;12897;50.812;4.430;2022-07-29T15:01:12;25.70;79.60
24800;DHT22;12897;50.812;4.430;2022-07-29T15:03:40;25.80;78.30
24800;DHT22;12897;50.812;4.430;2022-07-29T15:06:08;25.80;77.40
24800;DHT22;12897;50.812;4.430;2022-07-29T15:08:35;26.00;76.70
24800;DHT22;12897;50.812;4.430;2022-07-29T15:11:03;26.20;76.00
24800;DHT22;12897;50.812;4.430;2022-07-29T15:13:30;26.40;75.20
24800;DHT22;12897;50.812;4.430;2022-07-29T15:15:58;26.60;75.00
24800;DHT22;12897;50.812;4.430;2022-07-29T15:18:28;26.60;76.60
24800;DHT22;12897;50.812;4.430;2022-07-29T15:20:55;26.40;77.30
24800;DHT22;12897;50.812;4.430;2022-07-29T15:23:22;26.30;77.80
24800;DHT22;12897;50.812;4.430;2022-07-29T15:25:50;26.30;78.70
24800;DHT22;12897;50.812;4.430;2022-07-29T15:28:17;26.10;79.40
24800;DHT22;12897;50.812;4.430;2022-07-29T15:30:45;26.10;79.60
24800;DHT22;12897;50.812;4.430;2022-07-29T15:33:13;26.20;79.80
24800;DHT22;12897;50.812;4.430;2022-07-29T15:35:41;26.30;79.20
24800;DHT22;12897;50.812;4.430;2022-07-29T15:38:08;26.20;79.30
24800;DHT22;12897;50.812;4.430;2022-07-29T15:40:37;26.10;78.70
24800;DHT22;12897;50.812;4.430;2022-07-29T15:43:07;26.00;79.60
24800;DHT22;12897;50.812;4.430;2022-07-29T15:45:38;25.90;80.60
24800;DHT22;12897;50.812;4.430;2022-07-29T15:48:08;25.70;80.50
24800;DHT22;12897;50.812;4.430;2022-07-29T15:50:35;25.80;80.30
24800;DHT22;12897;50.812;4.430;2022-07-29T15:53:03;25.90;81.10
24800;DHT22;12897;50.812;4.430;2022-07-29T15:55:31;25.90;80.40
24800;DHT22;12897;50.812;4.430;2022-07-29T15:57:58;26.00;80.10
24800;DHT22;12897;50.812;4.430;2022-07-29T16:00:26;26.00;77.70
24800;DHT22;12897;50.812;4.430;2022-07-29T16:02:53;26.00;76.80
24800;DHT22;12897;50.812;4.430;2022-07-29T16:05:21;26.00;77.10
24800;DHT22;12897;50.812;4.430;2022-07-29T16:07:48;26.00;76.60
24800;DHT22;12897;50.812;4.430;2022-07-29T16:10:16;26.40;76.10
24800;DHT22;12897;50.812;4.430;2022-07-29T16:12:43;26.30;75.50
24800;DHT22;12897;50.812;4.430;2022-07-29T16:15:11;26.00;74.30
24800;DHT22;12897;50.812;4.430;2022-07-29T16:17:39;25.90;76.10
24800;DHT22;12897;50.812;4.430;2022-07-29T16:20:07;26.10;76.30
24800;DHT22;12897;50.812;4.430;2022-07-29T16:22:35;26.00;76.60
24800;DHT22;12897;50.812;4.430;2022-07-29T16:25:02;26.30;75.70
24800;DHT22;12897;50.812;4.430;2022-07-29T16:27:30;26.40;74.50